Time;durP1;ratioP1;P1;durP2;ratioP2;P2;SDS_P1;SDS_P2;PMS_P1;PMS_P2;Temp;Humidity;BMP_temperature;BMP_pressure;BME280_temperature;BME280_humidity;BME280_pressure;Samples;Min_cycle;Max_cycle;Signal;HPM_P1;HPM_P2
2022/10/20 00:00:27;;;;;;;11.35;7.30;;;;;;;2.01;100.00;99292.09;4156292;28;20045;-71
2022/10/20 00:02:28;;;;;;;10.30;7.35;;;;;;;2.02;100.00;99298.34;4163023;28;20044;-71
2022/10/20 00:04:28;;;;;;;10.32;7.00;;;;;;;1.97;100.00;99288.31;4157849;28;20045;-71
2022/10/20 00:06:31;;;;;;;9.40;6.97;;;;;;;1.95;100.00;99296.00;4157209;28;20052;-71
2022/10/20 00:08:31;;;;;;;9.68;6.63;;;;;;;1.95;100.00;99294.09;4161306;28;20049;-71
2022/10/20 00:10:32;;;;;;;9.20;5.93;;;;;;;1.89;100.00;99291.75;4157446;28;20150;-71
2022/10/20 00:12:33;;;;;;;8.50;6.78;;;;;;;1.84;100.00;99279.03;4156865;28;20439;-71
2022/10/20 00:14:33;;;;;;;10.80;7.57;;;;;;;1.83;100.00;99277.41;4156880;28;20847;-71
2022/10/20 00:16:37;;;;;;;10.55;7.43;;;;;;;1.82;100.00;99278.53;4157616;28;20064;-71
2022/10/20 00:18:37;;;;;;;10.93;6.68;;;;;;;1.90;100.00;99285.19;4156213;28;20474;-71
2022/10/20 00:20:38;;;;;;;10.80;6.65;;;;;;;1.94;100.00;99278.03;4160729;28;20103;-71
2022/10/20 00:22:39;;;;;;;9.05;6.85;;;;;;;1.95;100.00;99271.44;4160850;28;20080;-71
2022/10/20 00:24:39;;;;;;;9.50;6.97;;;;;;;1.93;100.00;99271.75;4157009;28;20477;-71
2022/10/20 00:26:39;;;;;;;9.90;6.93;;;;;;;1.91;100.00;99275.91;4156974;28;20040;-71
2022/10/20 00:28:40;;;;;;;9.38;6.78;;;;;;;1.84;100.00;99267.31;4156682;28;20273;-71
2022/10/20 00:30:41;;;;;;;11.70;7.45;;;;;;;1.78;100.00;99272.03;4157382;28;20782;-71
2022/10/20 00:32:41;;;;;;;11.10;7.40;;;;;;;1.70;100.00;99267.25;4156621;28;20073;-71
2022/10/20 00:34:41;;;;;;;10.75;7.18;;;;;;;1.62;100.00;99276.13;4156509;28;20124;-71
2022/10/20 00:36:42;;;;;;;11.38;7.90;;;;;;;1.50;100.00;99275.81;4157016;28;20323;-71
2022/10/20 00:38:42;;;;;;;12.90;8.00;;;;;;;1.52;100.00;99279.06;4156513;28;20037;-71
2022/10/20 00:40:43;;;;;;;12.95;8.07;;;;;;;1.56;100.00;99272.69;4156454;28;20651;-71
2022/10/20 00:42:44;;;;;;;11.75;8.50;;;;;;;1.58;100.00;99278.66;4156799;28;20033;-71
2022/10/20 00:44:57;;;;;;;9.63;7.50;;;;;;;1.54;100.00;99279.56;4161276;28;20061;-71
2022/10/20 00:46:57;;;;;;;11.60;8.40;;;;;;;1.47;100.00;99269.03;4163250;28;20048;-71
2022/10/20 00:49:10;;;;;;;13.77;8.75;;;;;;;1.49;100.00;99271.44;4156903;28;20501;-71
2022/10/20 00:51:15;;;;;;;12.43;7.70;;;;;;;1.43;100.00;99265.28;4158685;28;20053;-71
2022/10/20 00:53:17;;;;;;;14.18;8.32;;;;;;;1.51;100.00;99255.63;4161612;28;20060;-71
2022/10/20 00:55:27;;;;;;;13.40;8.40;;;;;;;1.49;100.00;99255.91;4156438;28;20052;-71
2022/10/20 00:57:30;;;;;;;14.63;8.18;;;;;;;1.51;100.00;99250.97;4156092;28;20045;-71
2022/10/20 00:59:33;;;;;;;13.27;8.82;;;;;;;1.53;100.00;99242.47;4155362;28;20584;-71
2022/10/20 01:01:33;;;;;;;12.93;8.57;;;;;;;1.52;100.00;99244.41;4154820;28;20076;-71
2022/10/20 01:03:40;;;;;;;11.35;8.40;;;;;;;1.47;100.00;99238.22;4156046;28;20325;-71
2022/10/20 01:05:41;;;;;;;14.85;9.00;;;;;;;1.44;100.00;99233.38;4161225;28;20045;-71
2022/10/20 01:07:41;;;;;;;15.07;9.15;;;;;;;1.31;100.00;99243.94;4156463;28;20528;-71
2022/10/20 01:09:42;;;;;;;13.38;8.32;;;;;;;1.20;100.00;99239.75;4156417;28;20059;-71
2022/10/20 01:12:04;;;;;;;13.82;8.60;;;;;;;1.24;100.00;99231.78;4165578;28;20052;-71
2022/10/20 01:14:30;;;;;;;14.07;8.23;;;;;;;1.30;100.00;99236.06;4158558;28;20049;-71
2022/10/20 01:16:53;;;;;;;11.43;8.50;;;;;;;1.31;100.00;99240.41;4156573;28;20080;-71
2022/10/20 01:19:02;;;;;;;13.20;8.45;;;;;;;1.28;100.00;99228.19;4161345;28;20041;-71
2022/10/20 01:21:38;;;;;;;16.42;9.38;;;;;;;1.28;100.00;99233.63;4158252;28;20608;-71
2022/10/20 01:23:41;;;;;;;13.13;8.73;;;;;;;1.28;100.00;99238.28;4156365;28;20324;-71
2022/10/20 01:25:50;;;;;;;12.27;8.25;;;;;;;1.25;100.00;99239.69;4155815;28;20828;-71
2022/10/20 01:28:29;;;;;;;12.30;8.93;;;;;;;1.21;100.00;99249.56;4155996;28;20436;-71
2022/10/20 01:30:32;;;;;;;12.00;8.23;;;;;;;1.19;100.00;99237.34;4157192;28;20492;-71
2022/10/20 01:33:00;;;;;;;16.45;8.50;;;;;;;1.21;100.00;99232.41;4158342;28;20103;-71
2022/10/20 01:35:26;;;;;;;16.23;8.05;;;;;;;1.13;100.00;99228.44;4155877;28;20213;-71
2022/10/20 01:37:34;;;;;;;15.50;9.55;;;;;;;1.10;100.00;99220.84;4158194;28;20088;-71
2022/10/20 01:39:57;;;;;;;15.95;9.57;;;;;;;1.05;100.00;99210.84;4159985;28;20041;-71
2022/10/20 01:42:02;;;;;;;14.13;8.80;;;;;;;0.96;100.00;99207.16;4155494;28;20521;-71
2022/10/20 01:44:08;;;;;;;13.82;9.05;;;;;;;0.82;100.00;99209.03;4156295;28;20049;-71
2022/10/20 01:46:10;;;;;;;16.95;10.13;;;;;;;0.78;100.00;99203.38;4156627;28;20389;-72
2022/10/20 01:48:15;;;;;;;18.55;9.13;;;;;;;0.78;100.00;99191.66;4157430;28;20468;-72
2022/10/20 01:50:17;;;;;;;16.02;9.55;;;;;;;0.82;100.00;99198.94;4155958;28;20370;-71
2022/10/20 01:52:20;;;;;;;;;;;;;;;0.90;100.00;99197.44;4156230;28;20025;-71
2022/10/20 01:54:26;;;;;;;14.93;8.93;;;;;;;0.90;100.00;99183.03;4157020;28;20273;-71
2022/10/20 01:56:51;;;;;;;15.35;8.30;;;;;;;0.96;100.00;99182.66;4158163;28;20041;-71
2022/10/20 01:59:13;;;;;;;12.05;8.48;;;;;;;0.94;100.00;99184.88;4159600;28;20060;-71
2022/10/20 02:01:22;;;;;;;13.55;8.27;;;;;;;0.77;100.00;99174.50;4159968;28;20378;-71
2022/10/20 02:03:29;;;;;;;15.80;8.00;;;;;;;0.86;100.00;99177.38;4157757;28;20061;-71
2022/10/20 02:05:51;;;;;;;12.88;8.10;;;;;;;0.79;100.00;99169.56;4155219;28;20049;-71
2022/10/20 02:07:58;;;;;;;13.15;8.10;;;;;;;0.81;100.00;99178.25;4160052;28;20041;-71
2022/10/20 02:10:19;;;;;;;12.52;8.02;;;;;;;0.90;100.00;99183.03;4154842;28;20156;-71
2022/10/20 02:12:26;;;;;;;11.45;7.95;;;;;;;0.81;100.00;99180.97;4157255;28;20064;-71
2022/10/20 02:14:27;;;;;;;15.52;7.97;;;;;;;0.74;100.00;99179.72;4155257;28;20392;-71
2022/10/20 02:16:32;;;;;;;18.98;8.80;;;;;;;0.78;100.00;99183.50;4154531;28;20450;-72
2022/10/20 02:18:39;;;;;;;16.92;10.52;;;;;;;0.76;100.00;99175.63;4160963;28;20049;-71
2022/10/20 02:20:42;;;;;;;19.13;9.25;;;;;;;0.85;100.00;99173.03;4157247;28;20049;-71
2022/10/20 02:22:43;;;;;;;21.58;9.73;;;;;;;0.90;100.00;99169.41;4154944;28;20119;-71
2022/10/20 02:24:45;;;;;;;19.98;10.38;;;;;;;0.89;100.00;99171.31;4154282;28;20041;-71
2022/10/20 02:26:46;;;;;;;18.08;8.63;;;;;;;0.85;100.00;99162.13;4155813;28;20052;-71
2022/10/20 02:28:55;;;;;;;16.38;8.98;;;;;;;0.83;100.00;99165.16;4154956;28;20474;-71
2022/10/20 02:30:56;;;;;;;13.05;8.30;;;;;;;0.85;100.00;99148.50;4160864;28;20485;-73
2022/10/20 02:32:56;;;;;;;19.23;9.90;;;;;;;0.94;100.00;99151.38;4155232;28;20041;-71
2022/10/20 02:34:57;;;;;;;14.93;8.40;;;;;;;0.94;100.00;99144.00;4155591;28;20054;-71
2022/10/20 02:36:58;;;;;;;13.38;8.57;;;;;;;0.86;100.00;99139.22;4159876;28;20478;-71
2022/10/20 02:38:58;;;;;;;17.83;8.07;;;;;;;0.76;100.00;99134.75;4154448;28;20371;-72
2022/10/20 02:40:58;;;;;;;11.00;7.47;;;;;;;0.63;100.00;99140.16;4157589;28;20406;-71
2022/10/20 02:42:58;;;;;;;17.45;8.35;;;;;;;0.55;100.00;99139.72;4154502;28;20052;-71
2022/10/20 02:44:59;;;;;;;21.73;8.45;;;;;;;0.52;100.00;99137.59;4155585;28;20106;-71
2022/10/20 02:46:59;;;;;;;16.13;8.98;;;;;;;0.55;100.00;99136.19;4154330;28;20041;-71
2022/10/20 02:48:59;;;;;;;18.52;9.23;;;;;;;0.49;100.00;99123.75;4154646;28;20045;-71
2022/10/20 02:51:00;;;;;;;25.90;8.75;;;;;;;0.34;100.00;99129.44;4155117;28;20262;-71
2022/10/20 02:53:01;;;;;;;75.30;11.63;;;;;;;0.20;100.00;99119.28;4154444;28;20057;-71
2022/10/20 02:55:01;;;;;;;19.10;8.43;;;;;;;0.11;100.00;99136.56;4154471;28;20432;-71
2022/10/20 02:57:01;;;;;;;12.95;8.18;;;;;;;0.05;100.00;99121.41;4155184;28;20037;-71
2022/10/20 02:59:02;;;;;;;37.42;9.43;;;;;;;0.03;100.00;99118.19;4154454;28;20034;-71
2022/10/20 03:01:03;;;;;;;23.55;9.45;;;;;;;0.01;100.00;99120.38;4154760;28;20046;-71
2022/10/20 03:03:03;;;;;;;23.27;10.27;;;;;;;0.05;100.00;99116.78;4156481;28;20053;-71
2022/10/20 03:05:04;;;;;;;19.15;9.77;;;;;;;0.21;100.00;99122.81;4154990;28;20049;-71
2022/10/20 03:07:04;;;;;;;18.23;9.35;;;;;;;0.20;100.00;99113.84;4156251;28;20041;-71
2022/10/20 03:09:05;;;;;;;18.05;9.15;;;;;;;0.34;100.00;99122.09;4154108;28;20084;-71
2022/10/20 03:11:05;;;;;;;17.17;9.35;;;;;;;0.35;100.00;99126.41;4155140;28;20045;-71
2022/10/20 03:13:06;;;;;;;20.00;10.05;;;;;;;0.40;100.00;99126.31;4154197;28;20148;-71
2022/10/20 03:15:07;;;;;;;14.95;8.55;;;;;;;0.40;100.00;99120.06;4154605;28;20091;-71
2022/10/20 03:17:07;;;;;;;18.42;9.23;;;;;;;0.42;100.00;99120.59;4154411;28;20080;-71
2022/10/20 03:19:08;;;;;;;15.65;9.65;;;;;;;0.39;100.00;99118.47;4154231;28;20045;-71
2022/10/20 03:21:08;;;;;;;15.95;8.52;;;;;;;0.36;100.00;99117.16;4158732;28;20072;-71
2022/10/20 03:23:08;;;;;;;17.23;9.60;;;;;;;0.40;100.00;99115.44;4154843;28;20045;-71
2022/10/20 03:25:09;;;;;;;11.93;8.00;;;;;;;0.29;100.00;99111.25;4155482;28;20395;-71
2022/10/20 03:27:09;;;;;;;15.60;8.32;;;;;;;0.22;100.00;99113.53;4162899;28;20621;-71
2022/10/20 03:29:09;;;;;;;20.45;8.52;;;;;;;0.11;100.00;99112.06;4156593;28;20284;-71
2022/10/20 03:31:09;;;;;;;20.10;8.80;;;;;;;0.09;100.00;99111.56;4158157;28;20149;-71
2022/10/20 03:33:10;;;;;;;18.58;9.50;;;;;;;0.13;100.00;99110.66;4157076;28;20037;-70
2022/10/20 03:35:10;;;;;;;13.80;8.60;;;;;;;0.18;100.00;99101.63;4157557;28;20083;-71
2022/10/20 03:37:10;;;;;;;18.58;8.65;;;;;;;0.20;100.00;99105.66;4159425;28;20040;-71
2022/10/20 03:39:10;;;;;;;28.27;9.60;;;;;;;0.22;100.00;99099.94;4156791;28;20405;-71
2022/10/20 03:41:11;;;;;;;12.95;8.30;;;;;;;0.28;100.00;99101.47;4158583;28;20083;-71
2022/10/20 03:43:11;;;;;;;21.75;8.80;;;;;;;0.31;100.00;99106.31;4156930;28;20042;-71
2022/10/20 03:45:11;;;;;;;14.38;8.57;;;;;;;0.32;100.00;99090.81;4158699;28;20045;-71
2022/10/20 03:47:12;;;;;;;14.30;8.52;;;;;;;0.33;100.00;99095.13;4157153;28;20048;-71
2022/10/20 03:49:13;;;;;;;17.23;9.23;;;;;;;0.41;100.00;99094.47;4156764;28;20666;-71
2022/10/20 03:51:14;;;;;;;14.25;8.70;;;;;;;0.40;100.00;99090.13;4158034;28;20723;-71
2022/10/20 03:53:14;;;;;;;18.15;9.70;;;;;;;0.41;100.00;99091.75;4161636;28;20038;-71
2022/10/20 03:55:15;;;;;;;13.65;9.05;;;;;;;0.43;100.00;99084.13;4162802;28;20506;-71
2022/10/20 03:57:16;;;;;;;14.27;8.80;;;;;;;0.39;100.00;99081.16;4156743;28;20474;-71
2022/10/20 03:59:16;;;;;;;13.68;8.13;;;;;;;0.31;100.00;99078.28;4156870;28;20053;-71
2022/10/20 04:01:22;;;;;;;14.55;7.55;;;;;;;0.30;100.00;99077.50;4156581;28;20053;-71
2022/10/20 04:03:22;;;;;;;11.18;7.28;;;;;;;0.28;100.00;99069.63;4160240;28;20037;-71
2022/10/20 04:05:22;;;;;;;10.55;7.18;;;;;;;0.27;100.00;99075.38;4157260;28;20041;-71
2022/10/20 04:07:22;;;;;;;14.93;8.10;;;;;;;0.27;100.00;99070.72;4156995;28;20080;-71
2022/10/20 04:09:23;;;;;;;11.73;7.72;;;;;;;0.30;100.00;99063.06;4156872;28;20388;-71
2022/10/20 04:11:25;;;;;;;19.50;8.25;;;;;;;0.31;100.00;99065.50;4156608;28;20042;-71
2022/10/20 04:13:25;;;;;;;13.25;8.23;;;;;;;0.32;100.00;99060.84;4157156;28;20328;-71
2022/10/20 04:15:26;;;;;;;17.40;8.98;;;;;;;0.30;100.00;99058.44;4156516;28;20202;-71
2022/10/20 04:17:26;;;;;;;13.05;7.78;;;;;;;0.34;100.00;99054.03;4157003;28;20045;-70
2022/10/20 04:19:26;;;;;;;12.32;8.10;;;;;;;0.37;100.00;99049.91;4159598;28;20135;-71
2022/10/20 04:21:27;;;;;;;14.23;8.98;;;;;;;0.37;100.00;99041.72;4161126;28;20064;-71
2022/10/20 04:23:27;;;;;;;19.00;8.73;;;;;;;0.32;100.00;99029.00;4159507;28;20075;-71
2022/10/20 04:25:27;;;;;;;12.18;7.55;;;;;;;0.30;100.00;99033.94;4156372;28;20043;-71
2022/10/20 04:27:28;;;;;;;21.63;8.52;;;;;;;0.27;100.00;99029.91;4157644;28;20417;-71
2022/10/20 04:29:28;;;;;;;12.00;7.88;;;;;;;0.24;100.00;99035.94;4157510;28;20049;-71
2022/10/20 04:31:28;;;;;;;15.93;8.75;;;;;;;0.15;100.00;99029.53;4164871;28;20040;-71
2022/10/20 04:33:28;;;;;;;13.27;7.97;;;;;;;0.08;100.00;99034.53;4157617;28;20457;-71
2022/10/20 04:35:29;;;;;;;13.30;7.78;;;;;;;0.03;100.00;99021.03;4159494;28;20044;-71
2022/10/20 04:37:29;;;;;;;14.68;8.90;;;;;;;0.06;100.00;99031.31;4156354;28;20037;-71
2022/10/20 04:39:29;;;;;;;18.23;9.45;;;;;;;0.07;100.00;99013.88;4156350;28;20045;-71
2022/10/20 04:41:30;;;;;;;13.20;8.98;;;;;;;0.09;100.00;99016.34;4157805;28;20423;-71
2022/10/20 04:43:31;;;;;;;15.73;8.13;;;;;;;0.08;100.00;99020.13;4158430;28;20050;-71
2022/10/20 04:45:31;;;;;;;18.75;9.02;;;;;;;0.02;100.00;99018.63;4156655;28;20041;-71
2022/10/20 04:47:32;;;;;;;10.82;7.65;;;;;;;-0.06;100.00;99029.06;4158758;28;20547;-71
2022/10/20 04:49:33;;;;;;;13.40;7.90;;;;;;;-0.10;100.00;99021.78;4155547;28;20041;-71
2022/10/20 04:51:33;;;;;;;19.35;8.20;;;;;;;-0.12;100.00;99022.06;4157739;28;20046;-71
2022/10/20 04:53:34;;;;;;;21.20;8.82;;;;;;;-0.16;100.00;99014.81;4157099;28;20121;-71
2022/10/20 04:55:34;;;;;;;12.60;7.65;;;;;;;-0.17;100.00;99010.44;4159830;28;20037;-71
2022/10/20 04:57:35;;;;;;;17.05;8.30;;;;;;;-0.21;100.00;99010.25;4156887;28;20347;-71
2022/10/20 04:59:35;;;;;;;19.08;8.23;;;;;;;-0.28;100.00;99012.50;4155725;28;20460;-71
2022/10/20 05:01:35;;;;;;;21.60;8.15;;;;;;;-0.36;100.00;99013.97;4156273;28;20445;-71
2022/10/20 05:03:36;;;;;;;10.05;6.93;;;;;;;-0.42;100.00;99012.41;4089693;28;20497;-71
2022/10/20 05:05:36;;;;;;;11.38;7.35;;;;;;;-0.41;100.00;99013.25;4155354;28;20493;-71
2022/10/20 05:07:36;;;;;;;11.20;7.88;;;;;;;-0.49;100.00;99005.75;4156652;28;20365;-71
2022/10/20 05:09:37;;;;;;;18.05;9.45;;;;;;;-0.60;100.00;99000.44;4155165;28;20060;-71
2022/10/20 05:11:37;;;;;;;14.88;8.15;;;;;;;-0.61;100.00;99006.16;4157902;28;20049;-71
2022/10/20 05:13:38;;;;;;;15.13;7.95;;;;;;;-0.66;100.00;98998.91;4155746;28;20638;-71
2022/10/20 05:15:38;;;;;;;11.65;7.65;;;;;;;-0.68;100.00;99003.81;4155613;28;20461;-71
2022/10/20 05:17:39;;;;;;;13.15;7.40;;;;;;;-0.71;100.00;99006.31;4156761;28;20049;-71
2022/10/20 05:19:39;;;;;;;11.73;7.05;;;;;;;-0.73;100.00;98989.50;4155109;28;20042;-71
2022/10/20 05:21:39;;;;;;;12.48;7.47;;;;;;;-0.73;100.00;98984.88;4163465;28;20050;-71
2022/10/20 05:23:41;;;;;;;14.07;8.52;;;;;;;-0.74;100.00;98983.25;4155301;28;20474;-71
2022/10/20 05:25:41;;;;;;;14.13;8.13;;;;;;;-0.78;100.00;98986.81;4156891;28;20135;-71
2022/10/20 05:27:41;;;;;;;11.38;7.55;;;;;;;-0.85;100.00;98984.47;4158641;28;20473;-71
2022/10/20 05:29:42;;;;;;;12.32;8.02;;;;;;;-0.82;100.00;98983.09;4156451;28;20045;-71
2022/10/20 05:31:43;;;;;;;17.38;9.05;;;;;;;-0.79;100.00;98980.59;4156268;28;20049;-71
2022/10/20 05:33:45;;;;;;;17.10;9.52;;;;;;;-0.77;100.00;98975.66;4155476;28;20045;-71
2022/10/20 05:35:46;;;;;;;18.95;10.63;;;;;;;-0.70;100.00;98970.69;4157115;28;20053;-70
2022/10/20 05:37:46;;;;;;;18.83;10.85;;;;;;;-0.59;100.00;98965.91;4155397;28;20045;-70
2022/10/20 05:39:46;;;;;;;16.63;10.00;;;;;;;-0.50;100.00;98966.06;4155178;28;20053;-71
2022/10/20 05:41:46;;;;;;;15.45;9.18;;;;;;;-0.44;100.00;98973.06;4155220;28;20460;-71
2022/10/20 05:43:52;;;;;;;14.57;9.70;;;;;;;-0.46;100.00;98984.22;4159732;28;20057;-71
2022/10/20 05:45:53;;;;;;;12.60;8.70;;;;;;;-0.51;100.00;98981.56;4155011;28;20060;-71
2022/10/20 05:47:54;;;;;;;16.75;9.88;;;;;;;-0.47;100.00;98977.16;4154379;28;20036;-71
2022/10/20 05:49:54;;;;;;;15.68;9.30;;;;;;;-0.46;100.00;98969.81;4156058;28;20055;-71
2022/10/20 05:51:54;;;;;;;18.55;11.52;;;;;;;-0.49;100.00;98971.22;4155195;28;20091;-71
2022/10/20 05:53:56;;;;;;;16.23;9.27;;;;;;;-0.51;100.00;98969.88;4156484;28;20041;-71
2022/10/20 05:56:02;;;;;;;14.77;9.23;;;;;;;-0.60;100.00;98970.53;4155357;28;20132;-70
2022/10/20 05:58:02;;;;;;;17.38;10.35;;;;;;;-0.60;100.00;98977.88;4157160;28;20049;-70
2022/10/20 06:00:03;;;;;;;16.25;9.73;;;;;;;-0.53;100.00;98977.53;4153969;28;20128;-70
2022/10/20 06:02:04;;;;;;;17.60;9.57;;;;;;;-0.58;100.00;98976.50;4155165;28;20124;-70
2022/10/20 06:04:07;;;;;;;18.05;10.07;;;;;;;-0.60;100.00;98978.69;4156566;28;20071;-71
2022/10/20 06:06:07;;;;;;;14.57;8.98;;;;;;;-0.60;100.00;98984.13;4154974;28;20029;-71
2022/10/20 06:08:08;;;;;;;12.68;8.63;;;;;;;-0.61;100.00;98982.50;4155574;28;20861;-71
2022/10/20 06:10:08;;;;;;;14.68;8.82;;;;;;;-0.60;100.00;98972.44;4155827;28;20354;-71
2022/10/20 06:12:08;;;;;;;14.65;8.90;;;;;;;-0.55;100.00;98966.94;4156082;28;20237;-71
2022/10/20 06:14:09;;;;;;;15.00;8.95;;;;;;;-0.49;100.00;98967.69;4154221;28;20044;-71
2022/10/20 06:16:20;;;;;;;14.50;9.77;;;;;;;-0.45;100.00;98966.81;4154806;28;20033;-71
2022/10/20 06:18:21;;;;;;;14.38;9.48;;;;;;;-0.45;100.00;98966.81;4154624;28;20049;-71
2022/10/20 06:20:21;;;;;;;15.52;9.10;;;;;;;-0.51;100.00;98967.97;4154747;28;20462;-71
2022/10/20 06:22:21;;;;;;;14.23;9.23;;;;;;;-0.54;100.00;98974.00;4155524;28;20056;-71
2022/10/20 06:24:22;;;;;;;14.63;9.65;;;;;;;-0.60;100.00;98975.16;4155645;28;20042;-71
2022/10/20 06:26:24;;;;;;;22.83;13.43;;;;;;;-0.61;100.00;98979.78;4155635;28;20422;-72
2022/10/20 06:28:24;;;;;;;18.98;11.95;;;;;;;-0.59;100.00;98977.59;4153963;28;20051;-70
2022/10/20 06:30:25;;;;;;;16.63;10.07;;;;;;;-0.61;100.00;98979.00;4153778;28;20387;-71
2022/10/20 06:32:25;;;;;;;16.35;9.20;;;;;;;-0.59;100.00;98966.72;4154751;28;20025;-71
2022/10/20 06:34:25;;;;;;;16.55;9.82;;;;;;;-0.62;100.00;98971.94;4155791;28;20038;-70
2022/10/20 06:36:26;;;;;;;18.15;10.43;;;;;;;-0.53;100.00;98978.34;4154765;28;20382;-70
2022/10/20 06:38:27;;;;;;;17.13;10.15;;;;;;;-0.47;100.00;98979.88;4155980;28;20544;-70
2022/10/20 06:40:27;;;;;;;21.17;11.00;;;;;;;-0.43;100.00;98972.75;4155204;28;20076;-71
2022/10/20 06:42:28;;;;;;;15.73;9.38;;;;;;;-0.24;100.00;98991.81;4154309;28;20115;-71
2022/10/20 06:44:28;;;;;;;14.60;8.95;;;;;;;-0.21;100.00;98984.97;4157232;28;20107;-71
2022/10/20 06:46:34;;;;;;;14.50;8.68;;;;;;;-0.16;100.00;98987.63;4155034;28;20045;-71
2022/10/20 06:48:34;;;;;;;15.30;8.82;;;;;;;-0.17;100.00;98977.81;4154928;28;20173;-71
2022/10/20 06:50:35;;;;;;;14.65;9.10;;;;;;;-0.18;100.00;98974.28;4154775;28;20040;-71
2022/10/20 06:52:35;;;;;;;17.05;8.70;;;;;;;-0.20;100.00;98968.34;4155069;28;20072;-71
2022/10/20 06:54:35;;;;;;;15.98;9.38;;;;;;;-0.18;100.00;98966.13;4158697;28;20474;-71
2022/10/20 06:56:37;;;;;;;18.55;9.02;;;;;;;-0.16;100.00;98974.00;4153343;28;20049;-71
2022/10/20 06:58:39;;;;;;;16.55;9.07;;;;;;;-0.12;100.00;98973.09;4155154;28;20052;-71
2022/10/20 07:00:40;;;;;;;17.27;10.27;;;;;;;-0.13;100.00;98968.78;4158985;28;20053;-71
2022/10/20 07:02:40;;;;;;;17.95;9.35;;;;;;;-0.03;100.00;98963.16;4154367;28;20045;-71
2022/10/20 07:04:40;;;;;;;15.45;9.80;;;;;;;0.07;100.00;98961.38;4154782;28;20050;-71
2022/10/20 07:06:42;;;;;;;13.82;8.40;;;;;;;0.14;100.00;98961.81;4155105;28;20046;-70
2022/10/20 07:08:43;;;;;;;18.00;9.77;;;;;;;0.15;100.00;98956.06;4153637;28;20034;-71
2022/10/20 07:10:44;;;;;;;17.02;9.23;;;;;;;0.25;100.00;98958.66;4156186;28;20445;-71
2022/10/20 07:12:44;;;;;;;18.13;9.60;;;;;;;0.31;100.00;98950.38;4156503;28;20057;-71
2022/10/20 07:14:44;;;;;;;14.60;9.70;;;;;;;0.38;100.00;98954.31;4154392;28;20374;-71
2022/10/20 07:16:44;;;;;;;13.00;8.55;;;;;;;0.40;100.00;98954.81;4153697;28;20425;-71
2022/10/20 07:18:45;;;;;;;19.27;8.95;;;;;;;0.51;100.00;98947.31;4154666;28;20407;-71
2022/10/20 07:20:46;;;;;;;15.15;9.35;;;;;;;0.57;100.00;98946.06;4154476;28;20052;-70
2022/10/20 07:22:46;;;;;;;15.52;9.48;;;;;;;0.65;100.00;98934.47;4154266;28;20152;-70
2022/10/20 07:24:46;;;;;;;21.55;10.93;;;;;;;0.74;100.00;98938.13;4154411;28;20367;-70
2022/10/20 07:26:46;;;;;;;17.38;10.60;;;;;;;0.87;100.00;98935.72;4155008;28;20391;-70
2022/10/20 07:28:49;;;;;;;15.27;9.63;;;;;;;0.96;100.00;98939.34;4157794;28;20056;-70
2022/10/20 07:30:49;;;;;;;16.83;10.82;;;;;;;1.05;100.00;98941.03;4156696;28;20042;-70
2022/10/20 07:32:50;;;;;;;13.82;8.82;;;;;;;1.12;100.00;98933.28;4154784;28;20092;-70
2022/10/20 07:34:50;;;;;;;15.40;9.20;;;;;;;1.21;100.00;98941.53;4154288;28;20103;-70
2022/10/20 07:36:50;;;;;;;17.33;8.85;;;;;;;1.29;100.00;98935.38;4154608;28;20034;-70
2022/10/20 07:38:53;;;;;;;14.35;8.82;;;;;;;1.35;100.00;98930.63;4152573;28;20122;-71
2022/10/20 07:41:00;;;;;;;19.65;9.25;;;;;;;1.39;100.00;98921.50;4155043;28;20038;-70
2022/10/20 07:43:00;;;;;;;18.15;8.85;;;;;;;1.44;100.00;98923.31;4158461;28;20516;-70
2022/10/20 07:45:00;;;;;;;14.95;9.55;;;;;;;1.47;100.00;98910.97;4153274;28;20033;-70
2022/10/20 07:47:01;;;;;;;16.63;9.90;;;;;;;1.55;100.00;98919.25;4154227;28;20445;-71
2022/10/20 07:49:01;;;;;;;14.65;8.68;;;;;;;1.58;100.00;98913.19;4154510;28;20381;-71
2022/10/20 07:51:29;;;;;;;21.30;9.32;;;;;;;1.66;100.00;98917.91;4154302;28;20264;-71
2022/10/20 07:53:30;;;;;;;14.43;8.25;;;;;;;1.71;100.00;98903.31;4154661;28;20045;-71
2022/10/20 07:55:31;;;;;;;15.45;8.80;;;;;;;1.77;100.00;98901.28;4153901;28;20462;-71
2022/10/20 07:57:31;;;;;;;12.40;8.40;;;;;;;1.83;100.00;98889.94;4155568;28;20462;-71
2022/10/20 07:59:31;;;;;;;20.75;9.15;;;;;;;1.93;100.00;98892.41;4152952;28;20042;-71
2022/10/20 08:01:32;;;;;;;13.35;8.75;;;;;;;2.03;100.00;98890.53;4154863;28;20045;-71
2022/10/20 08:03:32;;;;;;;14.68;9.00;;;;;;;2.12;100.00;98892.22;4154619;28;20077;-71
2022/10/20 08:05:33;;;;;;;15.68;9.32;;;;;;;2.18;100.00;98877.31;4154022;28;20046;-71
2022/10/20 08:07:34;;;;;;;13.95;8.63;;;;;;;2.27;100.00;98885.56;4154449;28;20049;-71
2022/10/20 08:09:34;;;;;;;15.45;8.90;;;;;;;2.35;100.00;98882.06;4153906;28;20039;-71
2022/10/20 08:11:34;;;;;;;16.50;9.32;;;;;;;2.47;100.00;98884.19;4157135;28;20042;-71
2022/10/20 08:13:35;;;;;;;15.40;8.32;;;;;;;2.50;100.00;98884.38;4161563;28;20041;-71
2022/10/20 08:15:35;;;;;;;14.55;9.32;;;;;;;2.61;100.00;98882.16;4156916;28;20060;-71
2022/10/20 08:17:35;;;;;;;15.15;8.88;;;;;;;2.69;100.00;98877.84;4161489;28;20513;-71
2022/10/20 08:19:36;;;;;;;18.33;10.30;;;;;;;2.83;100.00;98880.47;4156113;28;20044;-71
2022/10/20 08:21:36;;;;;;;17.80;9.80;;;;;;;2.99;100.00;98885.19;4157456;28;20053;-71
2022/10/20 08:23:42;;;;;;;16.67;9.85;;;;;;;3.10;100.00;98883.75;4156386;28;20041;-71
2022/10/20 08:25:42;;;;;;;16.83;9.50;;;;;;;3.26;100.00;98878.63;4156790;28;20080;-71
2022/10/20 08:27:43;;;;;;;18.38;8.98;;;;;;;3.40;100.00;98875.75;4156682;28;20366;-71
2022/10/20 08:29:43;;;;;;;16.80;10.07;;;;;;;3.53;100.00;98877.53;4156156;28;20247;-71
2022/10/20 08:31:43;;;;;;;15.80;10.48;;;;;;;3.67;100.00;98860.94;4161071;28;20042;-71
2022/10/20 08:33:44;;;;;;;22.65;12.07;;;;;;;4.06;100.00;98868.16;4156400;28;20053;-71
2022/10/20 08:35:44;;;;;;;19.55;10.90;;;;;;;4.31;100.00;98869.22;4157213;28;20042;-71
2022/10/20 08:37:44;;;;;;;17.10;10.20;;;;;;;4.58;100.00;98867.97;4156285;28;20041;-71
2022/10/20 08:39:44;;;;;;;15.52;10.20;;;;;;;4.79;100.00;98862.53;4157281;28;20422;-71
2022/10/20 08:41:47;;;;;;;17.20;10.13;;;;;;;5.06;100.00;98861.28;4155922;28;20069;-71
2022/10/20 08:43:49;;;;;;;;;;;;;;;5.24;100.00;98862.78;4156660;28;20053;-71
2022/10/20 08:45:49;;;;;;;16.58;8.82;;;;;;;5.34;100.00;98862.38;4160009;28;19952;-71
2022/10/20 08:47:53;;;;;;;16.38;9.02;;;;;;;5.50;100.00;98859.03;4162903;28;20045;-71
2022/10/20 08:49:53;;;;;;;17.58;9.77;;;;;;;5.67;100.00;98855.34;4156559;28;20041;-71
2022/10/20 08:51:54;;;;;;;14.30;9.25;;;;;;;5.78;100.00;98857.31;4159150;28;20037;-71
2022/10/20 08:53:57;;;;;;;13.40;8.80;;;;;;;5.87;100.00;98851.75;4156677;28;20037;-71
2022/10/20 08:55:57;;;;;;;14.95;8.90;;;;;;;5.94;100.00;98845.75;4156129;28;20132;-71
2022/10/20 08:58:02;;;;;;;13.07;8.38;;;;;;;6.05;100.00;98853.22;4156027;28;20544;-71
2022/10/20 09:00:15;;;;;;;14.30;8.88;;;;;;;6.18;100.00;98857.59;4155939;28;20537;-71
2022/10/20 09:02:16;;;;;;;12.75;7.95;;;;;;;6.28;100.00;98845.38;4157612;28;20406;-71
2022/10/20 09:04:48;;;;;;;15.73;9.25;;;;;;;6.39;100.00;98856.75;4157755;28;20089;-71
2022/10/20 09:07:00;;;;;;;14.10;8.65;;;;;;;6.48;100.00;98852.75;4144441;28;20425;-71
2022/10/20 09:09:00;;;;;;;14.70;8.15;;;;;;;6.52;100.00;98861.09;4155798;28;20084;-71
2022/10/20 09:11:02;;;;;;;12.07;8.57;;;;;;;6.56;100.00;98859.28;4164711;28;20539;-71
2022/10/20 09:13:09;;;;;;;11.25;7.32;;;;;;;6.59;100.00;98858.59;4156464;28;20061;-71
2022/10/20 09:15:10;;;;;;;11.27;8.40;;;;;;;6.61;100.00;98850.78;4159242;28;20175;-71
2022/10/20 09:17:15;;;;;;;12.18;7.38;;;;;;;6.67;100.00;98846.69;4156982;28;20323;-71
2022/10/20 09:19:21;;;;;;;9.15;7.10;;;;;;;6.74;100.00;98846.91;4155454;28;20042;-71
2022/10/20 09:21:22;;;;;;;11.73;7.90;;;;;;;6.97;100.00;98849.22;4157690;28;20048;-71
2022/10/20 09:23:28;;;;;;;10.63;7.55;;;;;;;7.05;100.00;98840.03;4158875;28;20044;-71
2022/10/20 09:25:29;;;;;;;12.05;7.95;;;;;;;7.19;100.00;98834.94;4157686;28;20068;-72
2022/10/20 09:27:34;;;;;;;11.60;6.93;;;;;;;7.31;100.00;98826.69;4159658;28;20099;-72
2022/10/20 09:29:36;;;;;;;9.75;7.22;;;;;;;7.44;100.00;98812.88;4155805;28;20484;-72